sensor_id;sensor_type;location;lat;lon;timestamp;pressure;altitude;pressure_sealevel;temperature;humidity
50268;BME280;36153;50.960;6.220;2024-01-06T00:01:17;99277.22;;;10.69;67.38
50268;BME280;36153;50.960;6.220;2024-01-06T00:06:18;99285.78;;;10.82;67.29
50268;BME280;36153;50.960;6.220;2024-01-06T00:11:18;99294.44;;;10.84;67.39
50268;BME280;36153;50.960;6.220;2024-01-06T00:16:19;99303.94;;;10.90;67.06
50268;BME280;36153;50.960;6.220;2024-01-06T00:21:20;99308.25;;;10.91;67.48
50268;BME280;36153;50.960;6.220;2024-01-06T00:26:20;99307.38;;;10.92;67.49
50268;BME280;36153;50.960;6.220;2024-01-06T00:31:21;99307.44;;;10.86;67.87
50268;BME280;36153;50.960;6.220;2024-01-06T00:36:21;99305.41;;;11.16;66.93
50268;BME280;36153;50.960;6.220;2024-01-06T00:41:21;99314.25;;;11.02;67.15
50268;BME280;36153;50.960;6.220;2024-01-06T00:46:21;99305.47;;;11.13;67.14
50268;BME280;36153;50.960;6.220;2024-01-06T00:51:22;99316.00;;;11.00;67.50
50268;BME280;36153;50.960;6.220;2024-01-06T00:56:22;99312.38;;;11.17;67.29
50268;BME280;36153;50.960;6.220;2024-01-06T01:01:23;99315.00;;;11.14;67.09
50268;BME280;36153;50.960;6.220;2024-01-06T01:06:23;99314.06;;;11.21;67.19
50268;BME280;36153;50.960;6.220;2024-01-06T01:11:23;99321.94;;;11.13;67.41
50268;BME280;36153;50.960;6.220;2024-01-06T01:16:24;99324.50;;;11.18;67.97
50268;BME280;36153;50.960;6.220;2024-01-06T01:21:24;99330.38;;;11.37;67.17
50268;BME280;36153;50.960;6.220;2024-01-06T01:26:25;99334.78;;;11.33;66.99
50268;BME280;36153;50.960;6.220;2024-01-06T01:31:25;99340.00;;;11.32;67.35
50268;BME280;36153;50.960;6.220;2024-01-06T01:36:26;99346.25;;;11.15;67.90
50268;BME280;36153;50.960;6.220;2024-01-06T01:41:26;99353.16;;;11.15;68.12
50268;BME280;36153;50.960;6.220;2024-01-06T01:46:30;99358.22;;;11.33;67.11
50268;BME280;36153;50.960;6.220;2024-01-06T01:51:33;99364.47;;;11.17;67.89
50268;BME280;36153;50.960;6.220;2024-01-06T01:56:34;99372.94;;;11.39;67.18
50268;BME280;36153;50.960;6.220;2024-01-06T02:01:35;99376.50;;;11.30;67.47
50268;BME280;36153;50.960;6.220;2024-01-06T02:06:36;99379.91;;;11.35;66.86
50268;BME280;36153;50.960;6.220;2024-01-06T02:11:36;99386.88;;;11.33;67.28
50268;BME280;36153;50.960;6.220;2024-01-06T02:16:36;99389.44;;;11.38;66.92
50268;BME280;36153;50.960;6.220;2024-01-06T02:21:41;99383.81;;;11.78;65.50
50268;BME280;36153;50.960;6.220;2024-01-06T02:26:42;99385.03;;;11.44;65.92
50268;BME280;36153;50.960;6.220;2024-01-06T02:31:42;99385.06;;;11.41;66.44
50268;BME280;36153;50.960;6.220;2024-01-06T02:36:42;99395.56;;;11.32;66.56
50268;BME280;36153;50.960;6.220;2024-01-06T02:41:43;99395.72;;;11.17;67.06
50268;BME280;36153;50.960;6.220;2024-01-06T02:46:43;99411.97;;;11.42;66.64
50268;BME280;36153;50.960;6.220;2024-01-06T02:51:44;99422.41;;;11.42;66.37
50268;BME280;36153;50.960;6.220;2024-01-06T02:56:44;99424.28;;;11.26;66.61
50268;BME280;36153;50.960;6.220;2024-01-06T03:01:45;99432.06;;;11.31;66.53
50268;BME280;36153;50.960;6.220;2024-01-06T03:06:45;99436.16;;;11.56;66.01
50268;BME280;36153;50.960;6.220;2024-01-06T03:11:46;99441.53;;;11.39;66.04
50268;BME280;36153;50.960;6.220;2024-01-06T03:16:47;99442.63;;;11.10;66.42
50268;BME280;36153;50.960;6.220;2024-01-06T03:21:47;99448.66;;;11.17;66.10
50268;BME280;36153;50.960;6.220;2024-01-06T03:26:47;99452.81;;;11.43;65.15
50268;BME280;36153;50.960;6.220;2024-01-06T03:31:48;99463.44;;;11.17;65.59
50268;BME280;36153;50.960;6.220;2024-01-06T03:36:48;99459.06;;;11.17;65.69
50268;BME280;36153;50.960;6.220;2024-01-06T03:41:49;99470.84;;;11.65;64.06
50268;BME280;36153;50.960;6.220;2024-01-06T03:46:49;99473.78;;;11.23;64.99
50268;BME280;36153;50.960;6.220;2024-01-06T03:51:49;99484.22;;;11.26;64.42
50268;BME280;36153;50.960;6.220;2024-01-06T03:56:50;99485.78;;;11.46;64.15
50268;BME280;36153;50.960;6.220;2024-01-06T04:01:50;99482.28;;;11.50;63.76
50268;BME280;36153;50.960;6.220;2024-01-06T04:06:50;99497.25;;;11.23;64.26
50268;BME280;36153;50.960;6.220;2024-01-06T04:11:50;99494.50;;;11.38;64.00
50268;BME280;36153;50.960;6.220;2024-01-06T04:16:51;99493.72;;;11.28;63.92
50268;BME280;36153;50.960;6.220;2024-01-06T04:21:53;99501.47;;;11.39;63.02
50268;BME280;36153;50.960;6.220;2024-01-06T04:26:54;99496.13;;;11.53;62.68
50268;BME280;36153;50.960;6.220;2024-01-06T04:31:54;99506.56;;;11.52;62.36
50268;BME280;36153;50.960;6.220;2024-01-06T04:36:54;99508.53;;;11.25;62.89
50268;BME280;36153;50.960;6.220;2024-01-06T04:41:55;99506.03;;;11.09;63.40
50268;BME280;36153;50.960;6.220;2024-01-06T04:46:55;99511.28;;;11.06;63.25
50268;BME280;36153;50.960;6.220;2024-01-06T04:51:55;99513.81;;;11.13;63.11
50268;BME280;36153;50.960;6.220;2024-01-06T04:56:56;99516.53;;;10.96;63.26
50268;BME280;36153;50.960;6.220;2024-01-06T05:01:57;99525.16;;;11.07;62.79
50268;BME280;36153;50.960;6.220;2024-01-06T05:06:58;99533.25;;;10.48;63.74
50268;BME280;36153;50.960;6.220;2024-01-06T05:11:59;99535.84;;;10.30;64.28
50268;BME280;36153;50.960;6.220;2024-01-06T05:16:59;99544.44;;;10.64;63.28
50268;BME280;36153;50.960;6.220;2024-01-06T05:21:59;99543.63;;;10.56;63.59
50268;BME280;36153;50.960;6.220;2024-01-06T05:27:00;99542.72;;;10.66;63.14
50268;BME280;36153;50.960;6.220;2024-01-06T05:32:00;99546.88;;;11.03;61.92
50268;BME280;36153;50.960;6.220;2024-01-06T05:37:03;99561.00;;;10.46;63.34
50268;BME280;36153;50.960;6.220;2024-01-06T05:42:08;99569.69;;;10.28;63.37
50268;BME280;36153;50.960;6.220;2024-01-06T05:47:10;99569.72;;;10.19;63.55
50268;BME280;36153;50.960;6.220;2024-01-06T05:52:11;99581.00;;;10.16;63.16
50268;BME280;36153;50.960;6.220;2024-01-06T05:57:11;99590.50;;;10.14;63.52
50268;BME280;36153;50.960;6.220;2024-01-06T06:02:11;99600.91;;;10.22;62.91
50268;BME280;36153;50.960;6.220;2024-01-06T06:07:12;99617.41;;;9.81;63.69
50268;BME280;36153;50.960;6.220;2024-01-06T06:12:52;99620.88;;;9.92;63.38
50268;BME280;36153;50.960;6.220;2024-01-06T06:17:53;99628.66;;;9.80;62.86
50268;BME280;36153;50.960;6.220;2024-01-06T06:22:53;99648.59;;;9.78;62.64
50268;BME280;36153;50.960;6.220;2024-01-06T06:27:54;99652.91;;;9.72;62.55
50268;BME280;36153;50.960;6.220;2024-01-06T06:45:37;99681.47;;;9.60;62.91
50268;BME280;36153;50.960;6.220;2024-01-06T06:50:37;99685.69;;;9.21;64.31
50268;BME280;36153;50.960;6.220;2024-01-06T06:55:38;99683.19;;;9.46;63.40
50268;BME280;36153;50.960;6.220;2024-01-06T07:00:38;99698.72;;;9.33;63.20
50268;BME280;36153;50.960;6.220;2024-01-06T07:05:39;99706.47;;;9.21;64.36
50268;BME280;36153;50.960;6.220;2024-01-06T07:10:39;99713.44;;;9.34;63.58
50268;BME280;36153;50.960;6.220;2024-01-06T07:15:40;99722.09;;;9.30;63.39
50268;BME280;36153;50.960;6.220;2024-01-06T07:20:41;99734.97;;;9.10;64.31
50268;BME280;36153;50.960;6.220;2024-01-06T07:25:41;99743.56;;;8.95;65.40
50268;BME280;36153;50.960;6.220;2024-01-06T07:30:42;99756.63;;;9.14;64.61
50268;BME280;36153;50.960;6.220;2024-01-06T07:35:42;99758.31;;;9.05;64.22
50268;BME280;36153;50.960;6.220;2024-01-06T07:40:43;99774.03;;;9.30;62.77
50268;BME280;36153;50.960;6.220;2024-01-06T07:45:44;99785.34;;;9.42;62.28
50268;BME280;36153;50.960;6.220;2024-01-06T07:50:44;99794.91;;;9.52;61.38
50268;BME280;36153;50.960;6.220;2024-01-06T07:55:45;99800.16;;;9.61;61.14
50268;BME280;36153;50.960;6.220;2024-01-06T08:00:46;99809.69;;;9.65;60.75
50268;BME280;36153;50.960;6.220;2024-01-06T08:05:46;99812.34;;;9.71;60.58
50268;BME280;36153;50.960;6.220;2024-01-06T08:10:46;99817.44;;;9.53;60.92
50268;BME280;36153;50.960;6.220;2024-01-06T08:15:47;99822.69;;;9.62;60.65
50268;BME280;36153;50.960;6.220;2024-01-06T08:20:47;99831.34;;;9.64;60.67
50268;BME280;36153;50.960;6.220;2024-01-06T08:25:48;99834.00;;;9.77;60.33
50268;BME280;36153;50.960;6.220;2024-01-06T08:30:48;99836.50;;;9.55;60.39
50268;BME280;36153;50.960;6.220;2024-01-06T08:35:49;99847.03;;;9.89;59.92
50268;BME280;36153;50.960;6.220;2024-01-06T08:40:49;99854.03;;;10.01;58.64
50268;BME280;36153;50.960;6.220;2024-01-06T08:45:50;99866.06;;;9.77;58.59
50268;BME280;36153;50.960;6.220;2024-01-06T08:50:50;99875.56;;;9.73;59.50
50268;BME280;36153;50.960;6.220;2024-01-06T08:55:51;99885.03;;;9.62;59.62
50268;BME280;36153;50.960;6.220;2024-01-06T09:00:51;99899.03;;;9.87;59.16
50268;BME280;36153;50.960;6.220;2024-01-06T09:05:55;99905.97;;;9.93;59.09
50268;BME280;36153;50.960;6.220;2024-01-06T09:10:56;99907.59;;;9.69;59.40
50268;BME280;36153;50.960;6.220;2024-01-06T09:15:57;99919.75;;;9.77;59.42
50268;BME280;36153;50.960;6.220;2024-01-06T09:20:57;99924.19;;;9.90;58.97
50268;BME280;36153;50.960;6.220;2024-01-06T09:25:57;99926.81;;;9.99;58.56
50268;BME280;36153;50.960;6.220;2024-01-06T09:30:58;99929.38;;;9.98;59.11
50268;BME280;36153;50.960;6.220;2024-01-06T09:35:58;99938.03;;;9.89;59.38
50268;BME280;36153;50.960;6.220;2024-01-06T09:40:58;99946.59;;;9.74;60.06
50268;BME280;36153;50.960;6.220;2024-01-06T09:46:07;99954.34;;;9.63;59.84
50268;BME280;36153;50.960;6.220;2024-01-06T09:51:11;99964.69;;;9.60;60.31
50268;BME280;36153;50.960;6.220;2024-01-06T09:56:12;99978.47;;;9.45;60.89
50268;BME280;36153;50.960;6.220;2024-01-06T10:01:14;99970.78;;;9.59;60.52
50268;BME280;36153;50.960;6.220;2024-01-06T10:06:16;99979.41;;;9.53;60.56
50268;BME280;36153;50.960;6.220;2024-01-06T10:11:17;99980.34;;;9.65;60.23
50268;BME280;36153;50.960;6.220;2024-01-06T10:16:18;99984.44;;;9.36;61.23
50268;BME280;36153;50.960;6.220;2024-01-06T10:21:20;99993.28;;;9.59;60.99
50268;BME280;36153;50.960;6.220;2024-01-06T10:26:21;99994.19;;;9.62;61.41
50268;BME280;36153;50.960;6.220;2024-01-06T10:31:21;99996.66;;;9.45;61.01
50268;BME280;36153;50.960;6.220;2024-01-06T10:36:26;100000.94;;;9.37;61.80
50268;BME280;36153;50.960;6.220;2024-01-06T10:41:26;99998.38;;;9.45;61.46
50268;BME280;36153;50.960;6.220;2024-01-06T10:46:27;99998.31;;;9.37;61.53
50268;BME280;36153;50.960;6.220;2024-01-06T10:51:31;99997.66;;;9.66;61.22
50268;BME280;36153;50.960;6.220;2024-01-06T10:56:37;99995.75;;;9.42;61.17
50268;BME280;36153;50.960;6.220;2024-01-06T11:01:38;100001.69;;;9.27;61.91
50268;BME280;36153;50.960;6.220;2024-01-06T11:06:39;99999.09;;;9.28;61.77
50268;BME280;36153;50.960;6.220;2024-01-06T11:11:40;100002.59;;;9.30;61.68
50268;BME280;36153;50.960;6.220;2024-01-06T11:16:41;100008.84;;;9.52;61.12
50268;BME280;36153;50.960;6.220;2024-01-06T11:21:41;100011.44;;;9.54;61.34
50268;BME280;36153;50.960;6.220;2024-01-06T11:26:44;100005.78;;;9.03;62.45
50268;BME280;36153;50.960;6.220;2024-01-06T11:32:17;100019.59;;;8.99;62.94
50268;BME280;36153;50.960;6.220;2024-01-06T11:37:23;100007.47;;;8.96;63.72
50268;BME280;36153;50.960;6.220;2024-01-06T11:42:32;99997.38;;;9.29;62.90
50268;BME280;36153;50.960;6.220;2024-01-06T11:47:33;100000.44;;;8.86;64.72
50268;BME280;36153;50.960;6.220;2024-01-06T11:52:34;99994.84;;;8.49;65.13
50268;BME280;36153;50.960;6.220;2024-01-06T11:57:34;99995.00;;;8.63;65.19
50268;BME280;36153;50.960;6.220;2024-01-06T12:02:35;100001.97;;;8.67;64.54
50268;BME280;36153;50.960;6.220;2024-01-06T12:07:35;100015.31;;;8.29;65.58
50268;BME280;36153;50.960;6.220;2024-01-06T12:12:35;100014.78;;;7.90;66.18
50268;BME280;36153;50.960;6.220;2024-01-06T12:17:35;100012.06;;;7.81;67.29
50268;BME280;36153;50.960;6.220;2024-01-06T12:22:36;100024.97;;;7.78;67.62
50268;BME280;36153;50.960;6.220;2024-01-06T12:27:41;100019.00;;;7.83;66.92
50268;BME280;36153;50.960;6.220;2024-01-06T12:32:42;100020.09;;;7.99;66.49
50268;BME280;36153;50.960;6.220;2024-01-06T12:37:43;100017.66;;;7.52;67.58
50268;BME280;36153;50.960;6.220;2024-01-06T12:42:45;100026.56;;;7.69;66.37
50268;BME280;36153;50.960;6.220;2024-01-06T12:47:45;100028.84;;;8.05;65.13
50268;BME280;36153;50.960;6.220;2024-01-06T12:52:45;100030.47;;;7.99;65.15
50268;BME280;36153;50.960;6.220;2024-01-06T12:57:46;100035.56;;;7.93;65.35
50268;BME280;36153;50.960;6.220;2024-01-06T13:02:46;100040.22;;;7.59;66.69
50268;BME280;36153;50.960;6.220;2024-01-06T13:07:46;100036.44;;;7.39;67.11
50268;BME280;36153;50.960;6.220;2024-01-06T13:12:46;100041.41;;;7.26;67.08
50268;BME280;36153;50.960;6.220;2024-01-06T13:17:47;100035.88;;;7.57;66.91
50268;BME280;36153;50.960;6.220;2024-01-06T13:22:48;100049.06;;;7.72;66.13
50268;BME280;36153;50.960;6.220;2024-01-06T13:27:48;100046.41;;;7.67;65.79
50268;BME280;36153;50.960;6.220;2024-01-06T13:32:48;100058.44;;;7.64;66.39
50268;BME280;36153;50.960;6.220;2024-01-06T13:37:51;100064.91;;;7.89;65.45
50268;BME280;36153;50.960;6.220;2024-01-06T13:42:51;100078.34;;;7.66;65.45
50268;BME280;36153;50.960;6.220;2024-01-06T13:47:52;100072.47;;;7.77;65.06
50268;BME280;36153;50.960;6.220;2024-01-06T13:52:52;100078.91;;;7.48;66.57
50268;BME280;36153;50.960;6.220;2024-01-06T13:57:54;100087.22;;;7.30;66.79
50268;BME280;36153;50.960;6.220;2024-01-06T14:02:54;100091.78;;;7.44;66.71
50268;BME280;36153;50.960;6.220;2024-01-06T14:07:56;100092.03;;;7.59;65.67
50268;BME280;36153;50.960;6.220;2024-01-06T14:12:56;100104.97;;;7.59;65.65
50268;BME280;36153;50.960;6.220;2024-01-06T14:17:57;100109.19;;;8.05;64.30
50268;BME280;36153;50.960;6.220;2024-01-06T14:22:57;100115.59;;;8.28;63.63
50268;BME280;36153;50.960;6.220;2024-01-06T14:27:58;100123.41;;;8.31;63.50
50268;BME280;36153;50.960;6.220;2024-01-06T14:32:59;100124.19;;;8.26;63.78
50268;BME280;36153;50.960;6.220;2024-01-06T14:37:59;100134.50;;;7.69;64.71
50268;BME280;36153;50.960;6.220;2024-01-06T14:42:59;100138.06;;;7.74;65.67
50268;BME280;36153;50.960;6.220;2024-01-06T14:48:02;100146.72;;;8.28;63.04
50268;BME280;36153;50.960;6.220;2024-01-06T14:53:02;100157.59;;;8.07;64.23
50268;BME280;36153;50.960;6.220;2024-01-06T14:58:03;100160.47;;;8.24;64.10
50268;BME280;36153;50.960;6.220;2024-01-06T15:03:04;100164.41;;;7.99;64.23
50268;BME280;36153;50.960;6.220;2024-01-06T15:08:04;100174.88;;;7.56;65.02
50268;BME280;36153;50.960;6.220;2024-01-06T15:13:05;100184.00;;;7.37;66.34
50268;BME280;36153;50.960;6.220;2024-01-06T15:18:05;100192.16;;;7.57;65.71
50268;BME280;36153;50.960;6.220;2024-01-06T15:23:05;100194.81;;;7.60;65.17
50268;BME280;36153;50.960;6.220;2024-01-06T15:28:06;100203.50;;;8.13;63.85
50268;BME280;36153;50.960;6.220;2024-01-06T15:33:06;100216.94;;;7.90;63.71
50268;BME280;36153;50.960;6.220;2024-01-06T15:38:06;100222.00;;;7.84;64.18
50268;BME280;36153;50.960;6.220;2024-01-06T15:43:24;100224.13;;;8.07;63.49
50268;BME280;36153;50.960;6.220;2024-01-06T15:48:25;100223.09;;;7.97;63.42
50268;BME280;36153;50.960;6.220;2024-01-06T15:53:25;100237.16;;;8.11;63.43
50268;BME280;36153;50.960;6.220;2024-01-06T15:58:25;100235.81;;;7.83;63.87
50268;BME280;36153;50.960;6.220;2024-01-06T16:03:26;100243.06;;;8.02;63.11
50268;BME280;36153;50.960;6.220;2024-01-06T16:08:26;100249.50;;;7.76;63.67
50268;BME280;36153;50.960;6.220;2024-01-06T16:13:26;100258.03;;;8.17;63.34
50268;BME280;36153;50.960;6.220;2024-01-06T16:18:27;100263.00;;;8.05;63.22
50268;BME280;36153;50.960;6.220;2024-01-06T16:23:27;100264.00;;;7.66;64.04
50268;BME280;36153;50.960;6.220;2024-01-06T16:28:28;100271.31;;;7.89;63.78
50268;BME280;36153;50.960;6.220;2024-01-06T16:33:28;100276.66;;;7.95;63.90
50268;BME280;36153;50.960;6.220;2024-01-06T16:38:29;100278.28;;;7.47;64.70
50268;BME280;36153;50.960;6.220;2024-01-06T16:43:34;100282.25;;;7.74;64.10
50268;BME280;36153;50.960;6.220;2024-01-06T16:48:37;100284.59;;;7.17;65.30
50268;BME280;36153;50.960;6.220;2024-01-06T16:53:37;100283.31;;;7.38;64.89
50268;BME280;36153;50.960;6.220;2024-01-06T16:58:38;100294.31;;;6.89;65.73
50268;BME280;36153;50.960;6.220;2024-01-06T17:03:38;100283.63;;;7.13;65.24
50268;BME280;36153;50.960;6.220;2024-01-06T17:08:38;100291.38;;;7.12;65.05
50268;BME280;36153;50.960;6.220;2024-01-06T17:13:40;100298.91;;;7.41;64.31
50268;BME280;36153;50.960;6.220;2024-01-06T17:18:42;100292.78;;;7.39;64.40
50268;BME280;36153;50.960;6.220;2024-01-06T17:23:43;100298.19;;;7.49;64.67
50268;BME280;36153;50.960;6.220;2024-01-06T17:28:44;100300.44;;;7.32;65.37
50268;BME280;36153;50.960;6.220;2024-01-06T17:33:44;100312.91;;;7.11;65.62
50268;BME280;36153;50.960;6.220;2024-01-06T17:38:44;100320.63;;;7.47;64.37
50268;BME280;36153;50.960;6.220;2024-01-06T17:43:44;100326.31;;;7.31;65.15
50268;BME280;36153;50.960;6.220;2024-01-06T17:48:47;100332.75;;;7.10;64.98
50268;BME280;36153;50.960;6.220;2024-01-06T17:53:47;100337.13;;;7.54;63.73
50268;BME280;36153;50.960;6.220;2024-01-06T17:58:47;100341.81;;;7.71;63.58
50268;BME280;36153;50.960;6.220;2024-01-06T18:03:48;100341.34;;;7.90;62.63
50268;BME280;36153;50.960;6.220;2024-01-06T18:08:49;100346.16;;;7.72;62.15
50268;BME280;36153;50.960;6.220;2024-01-06T18:13:49;100354.47;;;7.57;62.49
50268;BME280;36153;50.960;6.220;2024-01-06T18:18:49;100367.00;;;7.78;62.25
50268;BME280;36153;50.960;6.220;2024-01-06T18:23:49;100366.72;;;7.65;62.52
50268;BME280;36153;50.960;6.220;2024-01-06T18:28:50;100365.41;;;7.84;62.50
50268;BME280;36153;50.960;6.220;2024-01-06T18:33:50;100360.13;;;7.78;62.21
50268;BME280;36153;50.960;6.220;2024-01-06T18:38:50;100374.13;;;7.88;62.04
50268;BME280;36153;50.960;6.220;2024-01-06T18:43:51;100375.19;;;7.98;61.62
50268;BME280;36153;50.960;6.220;2024-01-06T18:48:51;100370.72;;;7.89;61.26
50268;BME280;36153;50.960;6.220;2024-01-06T18:53:51;100379.38;;;7.91;61.44
50268;BME280;36153;50.960;6.220;2024-01-06T18:58:52;100386.66;;;8.11;61.04
50268;BME280;36153;50.960;6.220;2024-01-06T19:03:53;100394.38;;;8.06;60.79
50268;BME280;36153;50.960;6.220;2024-01-06T19:08:53;100393.66;;;8.15;61.21
50268;BME280;36153;50.960;6.220;2024-01-06T19:13:53;100390.91;;;8.07;61.19
50268;BME280;36153;50.960;6.220;2024-01-06T19:18:53;100394.72;;;7.82;61.39
50268;BME280;36153;50.960;6.220;2024-01-06T19:23:54;100403.00;;;7.65;61.90
50268;BME280;36153;50.960;6.220;2024-01-06T19:28:54;100399.91;;;7.82;61.73
50268;BME280;36153;50.960;6.220;2024-01-06T19:33:54;100402.50;;;7.82;61.72
50268;BME280;36153;50.960;6.220;2024-01-06T19:38:56;100412.06;;;7.84;61.64
50268;BME280;36153;50.960;6.220;2024-01-06T19:43:56;100415.53;;;7.85;61.33
50268;BME280;36153;50.960;6.220;2024-01-06T19:49:00;100423.47;;;7.93;61.50
50268;BME280;36153;50.960;6.220;2024-01-06T19:54:00;100422.13;;;7.71;61.89
50268;BME280;36153;50.960;6.220;2024-01-06T19:59:01;100430.41;;;7.94;61.62
50268;BME280;36153;50.960;6.220;2024-01-06T20:04:02;100434.47;;;7.81;61.10
50268;BME280;36153;50.960;6.220;2024-01-06T20:09:02;100437.66;;;7.71;61.38
50268;BME280;36153;50.960;6.220;2024-01-06T20:14:03;100443.88;;;7.77;61.81
50268;BME280;36153;50.960;6.220;2024-01-06T20:19:03;100448.47;;;7.89;61.43
50268;BME280;36153;50.960;6.220;2024-01-06T20:24:04;100445.78;;;7.86;61.33
50268;BME280;36153;50.960;6.220;2024-01-06T20:29:04;100450.00;;;7.81;61.74
50268;BME280;36153;50.960;6.220;2024-01-06T20:34:05;100443.34;;;7.92;61.51
50268;BME280;36153;50.960;6.220;2024-01-06T20:39:05;100453.56;;;7.86;61.23
50268;BME280;36153;50.960;6.220;2024-01-06T20:44:05;100446.88;;;7.97;61.11
50268;BME280;36153;50.960;6.220;2024-01-06T20:49:05;100456.25;;;7.91;61.37
50268;BME280;36153;50.960;6.220;2024-01-06T20:54:06;100455.25;;;7.84;60.94
50268;BME280;36153;50.960;6.220;2024-01-06T20:59:06;100450.88;;;7.81;60.91
50268;BME280;36153;50.960;6.220;2024-01-06T21:04:06;100448.09;;;7.74;61.20
50268;BME280;36153;50.960;6.220;2024-01-06T21:09:07;100457.78;;;7.81;61.02
50268;BME280;36153;50.960;6.220;2024-01-06T21:14:09;100458.09;;;7.95;60.95
50268;BME280;36153;50.960;6.220;2024-01-06T21:19:10;100454.72;;;7.99;60.52
50268;BME280;36153;50.960;6.220;2024-01-06T21:24:11;100453.66;;;7.89;60.54
50268;BME280;36153;50.960;6.220;2024-01-06T21:29:12;100453.16;;;7.67;60.68
50268;BME280;36153;50.960;6.220;2024-01-06T21:34:13;100459.34;;;7.74;60.50
50268;BME280;36153;50.960;6.220;2024-01-06T21:39:13;100459.41;;;7.77;60.02
50268;BME280;36153;50.960;6.220;2024-01-06T21:44:13;100464.41;;;7.69;60.01
50268;BME280;36153;50.960;6.220;2024-01-06T21:49:14;100466.94;;;7.66;60.25
50268;BME280;36153;50.960;6.220;2024-01-06T21:54:14;100467.78;;;7.65;60.34
50268;BME280;36153;50.960;6.220;2024-01-06T21:59:14;100470.59;;;7.75;59.65
50268;BME280;36153;50.960;6.220;2024-01-06T22:04:15;100475.09;;;7.45;59.39
50268;BME280;36153;50.960;6.220;2024-01-06T22:09:15;100483.88;;;7.50;59.49
50268;BME280;36153;50.960;6.220;2024-01-06T22:14:15;100489.97;;;7.54;59.65
50268;BME280;36153;50.960;6.220;2024-01-06T22:19:16;100488.06;;;7.47;59.37
50268;BME280;36153;50.960;6.220;2024-01-06T22:24:16;100490.00;;;7.56;59.45
50268;BME280;36153;50.960;6.220;2024-01-06T22:29:16;100496.59;;;7.41;59.83
50268;BME280;36153;50.960;6.220;2024-01-06T22:34:17;100500.22;;;7.49;59.24
50268;BME280;36153;50.960;6.220;2024-01-06T22:39:17;100487.81;;;7.36;59.12
50268;BME280;36153;50.960;6.220;2024-01-06T22:44:19;100491.88;;;7.26;59.64
50268;BME280;36153;50.960;6.220;2024-01-06T22:49:19;100499.38;;;7.49;59.35
50268;BME280;36153;50.960;6.220;2024-01-06T22:54:19;100502.63;;;7.42;59.27
50268;BME280;36153;50.960;6.220;2024-01-06T22:59:20;100505.81;;;7.30;58.84
50268;BME280;36153;50.960;6.220;2024-01-06T23:04:20;100510.41;;;7.08;59.57
50268;BME280;36153;50.960;6.220;2024-01-06T23:09:20;100515.13;;;7.23;59.15
50268;BME280;36153;50.960;6.220;2024-01-06T23:14:21;100524.22;;;7.41;58.83
50268;BME280;36153;50.960;6.220;2024-01-06T23:19:22;100514.06;;;7.15;57.92
50268;BME280;36153;50.960;6.220;2024-01-06T23:24:22;100519.19;;;7.13;58.60
50268;BME280;36153;50.960;6.220;2024-01-06T23:29:22;100530.25;;;7.41;58.34
50268;BME280;36153;50.960;6.220;2024-01-06T23:34:23;100534.41;;;7.34;58.70
50268;BME280;36153;50.960;6.220;2024-01-06T23:39:28;100534.56;;;7.41;58.67
50268;BME280;36153;50.960;6.220;2024-01-06T23:44:28;100536.44;;;7.46;58.74
50268;BME280;36153;50.960;6.220;2024-01-06T23:49:29;100539.91;;;7.48;58.69
50268;BME280;36153;50.960;6.220;2024-01-06T23:54:29;100540.88;;;7.52;58.71
50268;BME280;36153;50.960;6.220;2024-01-06T23:59:29;100550.03;;;7.74;59.10
